createdAt,value
2023-05-11T00:00:37.081Z,10.60
2023-05-11T00:01:38.938Z,10.57
2023-05-11T00:02:40.973Z,10.80
2023-05-11T00:03:43.319Z,10.52
2023-05-11T00:04:45.218Z,11.10
2023-05-11T00:05:49.828Z,10.57
2023-05-11T00:06:51.578Z,10.27
2023-05-11T00:07:53.324Z,10.95
2023-05-11T00:08:55.402Z,10.40
2023-05-11T00:09:57.155Z,10.45
2023-05-11T00:11:00.802Z,10.65
2023-05-11T00:12:02.861Z,10.50
2023-05-11T00:13:04.631Z,10.50
2023-05-11T00:14:06.630Z,10.77
2023-05-11T00:15:09.167Z,10.38
2023-05-11T00:16:11.193Z,10.30
2023-05-11T00:17:13.306Z,10.90
2023-05-11T00:18:15.105Z,11.65
2023-05-11T00:19:16.817Z,10.52
2023-05-11T00:20:18.965Z,11.57
2023-05-11T00:21:22.810Z,10.48
2023-05-11T00:22:24.580Z,10.38
2023-05-11T00:23:26.371Z,11.35
2023-05-11T00:24:28.227Z,10.80
2023-05-11T00:25:30.456Z,10.88
2023-05-11T00:26:32.360Z,10.88
2023-05-11T00:27:34.186Z,11.60
2023-05-11T00:28:36.012Z,11.23
2023-05-11T00:29:37.790Z,11.70
2023-05-11T00:30:42.287Z,11.23
2023-05-11T00:31:48.001Z,11.10
2023-05-11T00:32:52.012Z,10.85
2023-05-11T00:33:54.791Z,10.95
2023-05-11T00:34:56.594Z,11.05
2023-05-11T00:35:58.533Z,11.30
2023-05-11T00:37:00.385Z,10.82
2023-05-11T00:38:02.117Z,10.60
2023-05-11T00:39:04.085Z,11.15
2023-05-11T00:40:07.434Z,10.70
2023-05-11T00:41:09.223Z,10.50
2023-05-11T00:42:11.402Z,10.10
2023-05-11T00:43:13.217Z,9.85
2023-05-11T00:44:15.086Z,10.40
2023-05-11T00:45:17.093Z,10.93
2023-05-11T00:46:18.945Z,10.43
2023-05-11T00:47:20.756Z,10.85
2023-05-11T00:48:22.762Z,10.93
2023-05-11T00:49:24.547Z,10.95
2023-05-11T00:50:27.093Z,11.82
2023-05-11T00:51:29.005Z,10.68
2023-05-11T00:52:30.882Z,10.68
2023-05-11T00:53:32.993Z,10.98
2023-05-11T00:54:36.297Z,10.82
2023-05-11T00:55:38.403Z,10.05
2023-05-11T00:56:41.111Z,11.43
2023-05-11T00:57:43.549Z,10.70
2023-05-11T00:58:45.869Z,10.20
2023-05-11T00:59:49.857Z,10.77
2023-05-11T01:00:51.725Z,10.50
2023-05-11T01:01:53.802Z,10.60
2023-05-11T01:02:56.271Z,11.10
2023-05-11T01:03:58.452Z,11.63
2023-05-11T01:05:01.793Z,12.75
2023-05-11T01:06:42.483Z,12.73
2023-05-11T01:08:12.430Z,11.43
2023-05-11T01:09:32.300Z,11.52
2023-05-11T01:11:08.271Z,10.55
2023-05-11T01:12:46.169Z,11.18
2023-05-11T01:14:26.172Z,10.60
2023-05-11T01:15:50.356Z,11.13
2023-05-11T01:17:03.493Z,10.57
2023-05-11T01:18:42.449Z,11.75
2023-05-11T01:19:57.265Z,11.45
2023-05-11T01:21:02.459Z,11.60
2023-05-11T01:22:53.128Z,10.30
2023-05-11T01:24:53.510Z,11.68
2023-05-11T01:26:27.233Z,12.07
2023-05-11T01:28:15.363Z,12.35
2023-05-11T01:29:59.231Z,10.52
2023-05-11T01:31:13.655Z,10.90
2023-05-11T01:32:29.024Z,10.25
2023-05-11T01:33:40.836Z,11.48
2023-05-11T01:34:46.235Z,11.02
2023-05-11T01:36:00.540Z,11.90
2023-05-11T01:37:22.876Z,10.30
2023-05-11T01:38:29.427Z,11.18
2023-05-11T01:39:39.856Z,10.40
2023-05-11T01:40:51.505Z,10.68
2023-05-11T01:41:58.301Z,11.20
2023-05-11T01:43:18.761Z,11.23
2023-05-11T01:44:30.813Z,11.25
2023-05-11T01:45:39.388Z,11.25
2023-05-11T01:46:41.211Z,12.63
2023-05-11T01:47:48.079Z,11.63
2023-05-11T01:48:54.687Z,11.68
2023-05-11T01:49:59.043Z,11.20
2023-05-11T01:51:03.560Z,11.70
2023-05-11T01:52:08.538Z,12.63
2023-05-11T01:53:13.675Z,12.50
2023-05-11T01:54:18.921Z,12.27
2023-05-11T01:55:24.761Z,14.15
2023-05-11T01:56:28.913Z,13.25
2023-05-11T01:57:33.352Z,13.13
2023-05-11T01:58:38.773Z,13.95
2023-05-11T01:59:41.209Z,12.50
2023-05-11T02:00:45.227Z,11.73
2023-05-11T02:01:47.930Z,11.15
2023-05-11T02:02:50.519Z,11.52
2023-05-11T02:03:55.535Z,11.57
2023-05-11T02:05:00.909Z,11.65
2023-05-11T02:06:06.660Z,12.10
2023-05-11T02:07:13.072Z,11.45
2023-05-11T02:08:16.822Z,11.70
2023-05-11T02:09:21.491Z,11.82
2023-05-11T02:10:27.232Z,12.43
2023-05-11T02:11:32.220Z,12.30
2023-05-11T02:12:36.805Z,12.85
2023-05-11T02:13:45.394Z,12.50
2023-05-11T02:14:51.193Z,13.18
2023-05-11T02:15:58.614Z,12.00
2023-05-11T02:17:03.508Z,11.85
2023-05-11T02:18:15.598Z,13.35
2023-05-11T02:19:19.572Z,12.55
2023-05-11T02:20:21.936Z,13.65
2023-05-11T02:21:27.656Z,13.48
2023-05-11T02:22:32.159Z,12.48
2023-05-11T02:23:34.795Z,13.63
2023-05-11T02:24:37.932Z,13.63
2023-05-11T02:25:43.064Z,14.20
2023-05-11T02:26:45.034Z,13.93
2023-05-11T02:27:46.882Z,13.48
2023-05-11T02:28:48.879Z,14.10
2023-05-11T02:29:50.935Z,14.45
2023-05-11T02:30:59.502Z,13.35
2023-05-11T02:32:09.098Z,13.70
2023-05-11T02:33:29.779Z,13.60
2023-05-11T02:34:41.742Z,14.00
2023-05-11T02:35:46.440Z,14.43
2023-05-11T02:36:53.182Z,13.93
2023-05-11T02:38:01.411Z,14.23
2023-05-11T02:39:12.551Z,14.30
2023-05-11T02:40:22.484Z,13.25
2023-05-11T02:41:30.077Z,14.38
2023-05-11T02:42:40.033Z,13.85
2023-05-11T02:43:54.033Z,13.80
2023-05-11T02:45:05.017Z,15.20
2023-05-11T02:46:18.979Z,14.45
2023-05-11T02:47:27.449Z,15.57
2023-05-11T02:48:39.725Z,15.45
2023-05-11T02:49:44.616Z,14.07
2023-05-11T02:50:49.092Z,14.70
2023-05-11T02:51:53.662Z,13.88
2023-05-11T02:53:01.399Z,14.13
2023-05-11T02:54:10.642Z,14.25
2023-05-11T02:55:17.385Z,14.27
2023-05-11T02:56:20.112Z,12.52
2023-05-11T02:57:24.648Z,11.38
2023-05-11T02:58:27.152Z,11.75
2023-05-11T02:59:30.776Z,10.75
2023-05-11T03:00:32.805Z,10.77
2023-05-11T03:01:35.664Z,10.98
2023-05-11T03:02:37.732Z,11.55
2023-05-11T03:03:39.810Z,10.80
2023-05-11T03:04:42.125Z,11.27
2023-05-11T03:05:43.878Z,10.27
2023-05-11T03:06:45.911Z,10.88
2023-05-11T03:07:47.977Z,10.60
2023-05-11T03:08:50.102Z,10.85
2023-05-11T03:09:53.000Z,10.50
2023-05-11T03:10:57.497Z,10.45
2023-05-11T03:12:00.933Z,10.32
2023-05-11T03:13:05.455Z,9.20
2023-05-11T03:14:08.329Z,10.20
2023-05-11T03:15:12.537Z,9.60
2023-05-11T03:16:15.739Z,9.50
2023-05-11T03:17:21.232Z,9.73
2023-05-11T03:18:24.120Z,9.05
2023-05-11T03:19:29.186Z,9.25
2023-05-11T03:20:33.619Z,9.55
2023-05-11T03:21:39.551Z,8.55
2023-05-11T03:22:42.333Z,8.07
2023-05-11T03:23:48.648Z,8.80
2023-05-11T03:24:52.257Z,8.90
2023-05-11T03:25:56.134Z,9.15
2023-05-11T03:26:59.906Z,8.95
2023-05-11T03:28:04.224Z,8.52
2023-05-11T03:29:08.919Z,8.80
2023-05-11T03:30:15.991Z,8.10
2023-05-11T03:31:18.984Z,8.75
2023-05-11T03:32:20.817Z,8.75
2023-05-11T03:33:23.217Z,8.48
2023-05-11T03:34:25.063Z,9.02
2023-05-11T03:35:31.097Z,8.90
2023-05-11T03:36:33.679Z,8.60
2023-05-11T03:37:38.804Z,9.10
2023-05-11T03:38:40.960Z,10.10
2023-05-11T03:39:48.087Z,8.30
2023-05-11T03:40:54.721Z,9.02
2023-05-11T03:41:58.553Z,8.68
2023-05-11T03:43:05.303Z,9.10
2023-05-11T03:44:10.829Z,9.07
2023-05-11T03:45:18.187Z,9.52
2023-05-11T03:46:23.028Z,8.95
2023-05-11T03:47:28.555Z,8.65
2023-05-11T03:48:32.151Z,8.85
2023-05-11T03:49:38.022Z,9.63
2023-05-11T03:50:41.225Z,8.90
2023-05-11T03:51:44.431Z,9.10
2023-05-11T03:52:46.333Z,9.70
2023-05-11T03:53:48.118Z,9.18
2023-05-11T03:54:50.536Z,9.07
2023-05-11T03:55:52.924Z,8.63
2023-05-11T03:56:54.734Z,8.60
2023-05-11T03:57:56.618Z,9.48
2023-05-11T03:58:58.910Z,9.15
2023-05-11T04:00:00.728Z,8.43
2023-05-11T04:01:02.557Z,8.30
2023-05-11T04:02:04.385Z,8.93
2023-05-11T04:03:07.883Z,9.65
2023-05-11T04:04:09.963Z,8.43
2023-05-11T04:05:13.070Z,9.05
2023-05-11T04:06:16.149Z,8.55
2023-05-11T04:07:18.122Z,8.70
2023-05-11T04:08:19.961Z,8.32
2023-05-11T04:09:21.709Z,7.75
2023-05-11T04:10:23.517Z,8.23
2023-05-11T04:11:27.404Z,8.45
2023-05-11T04:12:29.223Z,8.88
2023-05-11T04:13:30.934Z,8.25
2023-05-11T04:14:32.747Z,8.20
2023-05-11T04:15:35.810Z,8.90
2023-05-11T04:16:37.669Z,8.05
2023-05-11T04:17:39.629Z,6.90
2023-05-11T04:18:41.560Z,7.80
2023-05-11T04:19:43.401Z,8.40
2023-05-11T04:20:45.229Z,8.23
2023-05-11T04:21:47.039Z,7.85
2023-05-11T04:22:48.898Z,7.95
2023-05-11T04:23:50.649Z,7.47
2023-05-11T04:24:52.442Z,8.25
2023-05-11T04:25:55.954Z,8.02
2023-05-11T04:26:57.831Z,7.90
2023-05-11T04:27:59.579Z,7.38
2023-05-11T04:29:01.442Z,7.72
2023-05-11T04:30:03.295Z,6.47
2023-05-11T04:31:05.258Z,7.82
2023-05-11T04:32:07.045Z,8.10
2023-05-11T04:33:09.071Z,7.65
2023-05-11T04:34:10.868Z,7.32
2023-05-11T04:35:12.719Z,7.70
2023-05-11T04:36:14.531Z,7.40
2023-05-11T04:37:16.383Z,7.18
2023-05-11T04:38:19.871Z,7.88
2023-05-11T04:39:21.641Z,7.80
2023-05-11T04:40:23.654Z,7.72
2023-05-11T04:41:26.000Z,8.50
2023-05-11T04:42:27.789Z,7.10
2023-05-11T04:43:29.589Z,7.90
2023-05-11T04:44:31.338Z,7.72
2023-05-11T04:45:33.071Z,7.43
2023-05-11T04:46:35.450Z,6.78
2023-05-11T04:47:37.331Z,7.30
2023-05-11T04:48:39.131Z,7.45
2023-05-11T04:49:40.896Z,8.27
2023-05-11T04:50:43.118Z,8.15
2023-05-11T04:51:44.930Z,7.32
2023-05-11T04:52:46.643Z,7.90
2023-05-11T04:53:48.380Z,7.78
2023-05-11T04:54:50.175Z,7.63
2023-05-11T04:55:51.937Z,7.90
2023-05-11T04:56:53.711Z,7.50
2023-05-11T04:57:55.538Z,7.07
2023-05-11T04:58:57.385Z,7.50
2023-05-11T04:59:59.198Z,7.25
2023-05-11T05:01:01.009Z,7.85
2023-05-11T05:02:02.853Z,7.70
2023-05-11T05:03:04.614Z,7.82
2023-05-11T05:04:06.705Z,7.57
2023-05-11T05:05:09.442Z,8.00
2023-05-11T05:06:11.271Z,7.25
2023-05-11T05:07:13.036Z,6.97
2023-05-11T05:08:15.390Z,7.60
2023-05-11T05:09:17.718Z,7.25
2023-05-11T05:10:19.630Z,7.80
2023-05-11T05:11:21.718Z,7.20
2023-05-11T05:12:23.887Z,7.25
2023-05-11T05:13:25.958Z,8.07
2023-05-11T05:14:27.687Z,7.50
2023-05-11T05:15:29.484Z,6.85
2023-05-11T05:16:32.582Z,7.72
2023-05-11T05:17:34.823Z,7.65
2023-05-11T05:18:36.997Z,7.05
2023-05-11T05:19:38.821Z,7.32
2023-05-11T05:20:40.682Z,7.80
2023-05-11T05:21:42.592Z,9.00
2023-05-11T05:22:44.377Z,7.40
2023-05-11T05:23:46.176Z,6.93
2023-05-11T05:24:47.929Z,7.40
2023-05-11T05:25:49.692Z,7.43
2023-05-11T05:26:51.440Z,7.97
2023-05-11T05:27:53.295Z,6.97
2023-05-11T05:28:55.088Z,7.10
2023-05-11T05:29:56.906Z,6.82
2023-05-11T05:30:58.674Z,7.85
2023-05-11T05:32:00.428Z,7.22
2023-05-11T05:33:02.249Z,7.50
2023-05-11T05:34:04.042Z,7.35
2023-05-11T05:35:06.497Z,7.35
2023-05-11T05:36:08.690Z,8.38
2023-05-11T05:37:10.468Z,7.65
2023-05-11T05:38:12.547Z,7.13
2023-05-11T05:39:14.320Z,6.72
2023-05-11T05:40:16.394Z,7.22
2023-05-11T05:41:18.957Z,6.95
2023-05-11T05:43:24.382Z,7.40
2023-05-11T05:44:26.198Z,7.70
2023-05-11T05:45:28.013Z,9.80
2023-05-11T05:46:29.785Z,39.47
2023-05-11T05:47:31.688Z,10.30
2023-05-11T05:48:33.502Z,9.30
2023-05-11T05:49:35.285Z,7.20
2023-05-11T05:50:37.667Z,7.97
2023-05-11T05:51:39.528Z,8.18
2023-05-11T05:52:41.813Z,7.55
2023-05-11T05:53:43.733Z,7.57
2023-05-11T05:54:45.485Z,6.78
2023-05-11T05:55:47.250Z,8.00
2023-05-11T05:56:50.369Z,6.65
2023-05-11T05:57:52.226Z,6.65
2023-05-11T05:58:53.959Z,6.22
2023-05-11T05:59:55.903Z,6.82
2023-05-11T06:00:58.169Z,6.95
2023-05-11T06:01:59.923Z,6.68
2023-05-11T06:03:01.903Z,6.90
2023-05-11T06:04:03.911Z,6.57
2023-05-11T06:05:06.924Z,6.45
2023-05-11T06:06:08.706Z,6.38
2023-05-11T06:07:10.508Z,6.90
2023-05-11T06:08:12.250Z,6.53
2023-05-11T06:09:14.059Z,7.28
2023-05-11T06:10:16.023Z,6.15
2023-05-11T06:11:17.776Z,6.05
2023-05-11T06:12:19.670Z,6.80
2023-05-11T06:13:21.895Z,6.70
2023-05-11T06:14:23.709Z,6.00
2023-05-11T06:15:25.975Z,6.18
2023-05-11T06:16:28.186Z,6.65
2023-05-11T06:17:30.247Z,6.70
2023-05-11T06:18:32.094Z,6.20
2023-05-11T06:19:33.855Z,6.80
2023-05-11T06:20:35.813Z,6.57
2023-05-11T06:21:37.642Z,6.47
2023-05-11T06:22:39.497Z,5.68
2023-05-11T06:23:41.293Z,6.10
2023-05-11T06:24:43.100Z,5.80
2023-05-11T06:25:44.885Z,5.53
2023-05-11T06:26:46.674Z,4.80
2023-05-11T06:27:48.508Z,5.75
2023-05-11T06:28:50.851Z,5.18
2023-05-11T06:29:52.745Z,5.30
2023-05-11T06:31:00.020Z,5.32
2023-05-11T06:32:01.836Z,5.50
2023-05-11T06:33:03.777Z,5.32
2023-05-11T06:34:05.598Z,5.28
2023-05-11T06:35:07.991Z,5.00
2023-05-11T06:36:10.188Z,5.25
2023-05-11T06:37:11.922Z,6.28
2023-05-11T06:38:13.688Z,4.45
2023-05-11T06:39:15.776Z,4.38
2023-05-11T06:40:17.805Z,5.15
2023-05-11T06:41:19.723Z,5.20
2023-05-11T06:42:26.553Z,4.75
2023-05-11T06:43:28.473Z,4.60
2023-05-11T06:44:30.458Z,4.65
2023-05-11T06:45:32.333Z,4.68
2023-05-11T06:46:34.405Z,4.25
2023-05-11T06:47:37.056Z,4.70
2023-05-11T06:48:39.249Z,4.60
2023-05-11T06:49:44.218Z,4.68
2023-05-11T06:50:46.367Z,4.32
2023-05-11T06:51:48.705Z,4.13
2023-05-11T06:52:50.540Z,4.90
2023-05-11T06:53:52.381Z,4.60
2023-05-11T06:54:54.191Z,4.47
2023-05-11T06:55:56.441Z,4.50
2023-05-11T06:56:58.260Z,4.80
2023-05-11T06:57:59.993Z,3.88
2023-05-11T06:59:01.758Z,4.97
2023-05-11T07:00:04.419Z,4.00
2023-05-11T07:01:07.775Z,4.40
2023-05-11T07:02:10.128Z,4.60
2023-05-11T07:03:12.120Z,3.83
2023-05-11T07:04:13.957Z,3.40
2023-05-11T07:05:15.870Z,4.28
2023-05-11T07:06:17.650Z,3.75
2023-05-11T07:07:19.404Z,4.55
2023-05-11T07:08:21.362Z,4.00
2023-05-11T07:09:23.202Z,3.50
2023-05-11T07:10:25.128Z,4.10
2023-05-11T07:11:27.784Z,3.80
2023-05-11T07:12:29.572Z,3.92
2023-05-11T07:13:31.428Z,4.10
2023-05-11T07:14:33.481Z,4.00
2023-05-11T07:15:35.295Z,3.85
2023-05-11T07:16:39.817Z,3.63
2023-05-11T07:17:41.805Z,4.13
2023-05-11T07:18:43.591Z,4.25
2023-05-11T07:19:45.480Z,3.50
2023-05-11T07:20:49.967Z,3.72
2023-05-11T07:21:52.224Z,3.70
2023-05-11T07:23:01.685Z,3.45
2023-05-11T07:24:04.017Z,3.45
2023-05-11T07:25:06.810Z,3.40
2023-05-11T07:26:09.268Z,4.07
2023-05-11T07:27:11.406Z,3.60
2023-05-11T07:28:13.185Z,3.38
2023-05-11T07:29:14.980Z,3.25
2023-05-11T07:30:18.731Z,3.97
2023-05-11T07:31:21.065Z,3.10
2023-05-11T07:32:23.082Z,3.45
2023-05-11T07:33:24.972Z,3.45
2023-05-11T07:34:26.710Z,3.20
2023-05-11T07:35:28.948Z,3.58
2023-05-11T07:36:30.821Z,3.60
2023-05-11T07:37:32.562Z,3.45
2023-05-11T07:38:34.421Z,3.60
2023-05-11T07:39:36.294Z,3.50
2023-05-11T07:40:38.035Z,4.00
2023-05-11T07:41:39.822Z,3.25
2023-05-11T07:42:41.605Z,3.30
2023-05-11T07:43:43.395Z,3.33
2023-05-11T07:44:45.244Z,3.50
2023-05-11T07:45:47.212Z,3.10
2023-05-11T07:46:49.106Z,3.13
2023-05-11T07:47:51.006Z,3.15
2023-05-11T07:49:03.474Z,3.08
2023-05-11T07:50:09.610Z,3.05
2023-05-11T07:51:11.419Z,3.28
2023-05-11T07:52:14.122Z,3.35
2023-05-11T07:53:16.612Z,3.20
2023-05-11T07:54:20.932Z,2.92
2023-05-11T07:55:26.624Z,3.10
2023-05-11T07:56:28.418Z,3.65
2023-05-11T07:57:30.288Z,3.50
2023-05-11T07:58:32.768Z,3.63
2023-05-11T07:59:34.591Z,3.35
2023-05-11T08:00:36.547Z,3.40
2023-05-11T08:01:38.602Z,3.05
2023-05-11T08:02:40.510Z,3.28
2023-05-11T08:03:42.482Z,4.20
2023-05-11T08:04:44.876Z,4.13
2023-05-11T08:05:47.165Z,4.60
2023-05-11T08:06:49.053Z,3.33
2023-05-11T08:07:50.820Z,2.63
2023-05-11T08:08:52.627Z,3.10
2023-05-11T08:09:54.426Z,3.80
2023-05-11T08:10:56.732Z,3.90
2023-05-11T08:12:01.478Z,3.55
2023-05-11T08:13:03.605Z,4.20
2023-05-11T08:14:05.425Z,5.45
2023-05-11T08:15:08.178Z,2.78
2023-05-11T08:16:10.067Z,3.90
2023-05-11T08:17:11.919Z,3.40
2023-05-11T08:18:13.858Z,3.05
2023-05-11T08:19:15.696Z,2.60
2023-05-11T08:20:17.703Z,3.65
2023-05-11T08:21:19.552Z,3.13
2023-05-11T08:22:21.316Z,3.67
2023-05-11T08:23:23.154Z,3.97
2023-05-11T08:24:24.951Z,2.90
2023-05-11T08:25:26.747Z,3.67
2023-05-11T08:26:28.499Z,3.63
2023-05-11T08:27:30.275Z,2.75
2023-05-11T08:28:32.162Z,2.70
2023-05-11T08:29:33.884Z,3.20
2023-05-11T08:30:35.749Z,3.50
2023-05-11T08:31:37.551Z,3.15
2023-05-11T08:32:57.211Z,3.30
2023-05-11T08:34:00.273Z,3.83
2023-05-11T08:35:04.319Z,3.33
2023-05-11T08:36:07.349Z,3.25
2023-05-11T08:37:09.285Z,2.78
2023-05-11T08:38:11.075Z,2.88
2023-05-11T08:39:12.966Z,3.08
2023-05-11T08:40:15.038Z,2.80
2023-05-11T08:41:16.948Z,2.58
2023-05-11T08:42:23.727Z,2.80
2023-05-11T08:43:28.934Z,3.00
2023-05-11T08:44:34.804Z,3.00
2023-05-11T08:45:40.457Z,2.80
2023-05-11T08:46:48.733Z,2.60
2023-05-11T08:47:50.754Z,2.55
2023-05-11T08:48:53.105Z,2.55
2023-05-11T08:49:55.035Z,2.88
2023-05-11T08:50:57.350Z,2.58
2023-05-11T08:52:04.463Z,3.10
2023-05-11T08:53:08.068Z,2.50
2023-05-11T08:54:09.902Z,2.67
2023-05-11T08:55:12.739Z,2.72
2023-05-11T08:56:17.212Z,2.45
2023-05-11T08:57:20.673Z,2.60
2023-05-11T08:58:23.350Z,2.42
2023-05-11T08:59:28.788Z,3.30
2023-05-11T09:00:32.570Z,3.30
2023-05-11T09:01:37.362Z,2.83
2023-05-11T09:02:40.307Z,2.80
2023-05-11T09:03:43.503Z,2.28
2023-05-11T09:04:49.004Z,2.80
2023-05-11T09:05:53.006Z,2.83
2023-05-11T09:06:56.062Z,2.60
2023-05-11T09:08:04.225Z,2.75
2023-05-11T09:09:06.018Z,2.70
2023-05-11T09:10:10.060Z,2.50
2023-05-11T09:11:13.809Z,2.13
2023-05-11T09:12:17.359Z,2.75
2023-05-11T09:13:19.243Z,2.17
2023-05-11T09:14:27.095Z,2.53
2023-05-11T09:15:29.390Z,2.05
2023-05-11T09:16:37.256Z,2.30
2023-05-11T09:17:39.644Z,3.08
2023-05-11T09:18:49.628Z,2.20
2023-05-11T09:20:06.825Z,2.40
2023-05-11T09:21:08.617Z,2.40
2023-05-11T09:22:10.414Z,2.15
2023-05-11T09:23:20.075Z,2.08
2023-05-11T09:24:22.582Z,2.28
2023-05-11T09:25:27.212Z,2.30
2023-05-11T09:26:29.674Z,2.40
2023-05-11T09:27:32.277Z,2.53
2023-05-11T09:28:36.015Z,2.13
2023-05-11T09:29:38.052Z,2.50
2023-05-11T09:30:39.788Z,2.22
2023-05-11T09:31:47.310Z,2.70
2023-05-11T09:33:02.249Z,2.28
2023-05-11T09:34:23.679Z,2.55
2023-05-11T09:35:29.274Z,4.32
2023-05-11T09:36:32.009Z,2.60
2023-05-11T09:37:33.801Z,2.30
2023-05-11T09:38:35.757Z,2.40
2023-05-11T09:39:44.547Z,2.33
2023-05-11T09:41:00.894Z,2.40
2023-05-11T09:42:17.926Z,2.50
2023-05-11T09:43:27.444Z,2.30
2023-05-11T09:44:32.383Z,2.17
2023-05-11T09:45:50.022Z,2.63
2023-05-11T09:46:52.262Z,2.40
2023-05-11T09:47:54.168Z,2.60
2023-05-11T09:49:01.137Z,2.67
2023-05-11T09:50:18.025Z,2.17
2023-05-11T09:51:31.828Z,2.10
2023-05-11T09:52:33.622Z,2.50
2023-05-11T09:53:45.852Z,2.40
2023-05-11T09:54:51.968Z,2.55
2023-05-11T09:55:56.671Z,2.10
2023-05-11T09:57:00.268Z,1.80
2023-05-11T09:58:03.437Z,2.38
2023-05-11T09:59:05.475Z,2.20
2023-05-11T10:00:15.106Z,2.03
2023-05-11T10:01:29.753Z,2.00
2023-05-11T10:02:33.532Z,1.90
2023-05-11T10:03:51.760Z,2.00
2023-05-11T10:04:57.334Z,2.17
2023-05-11T10:06:01.322Z,2.30
2023-05-11T10:07:06.627Z,2.30
2023-05-11T10:08:08.422Z,2.28
2023-05-11T10:09:10.790Z,2.17
2023-05-11T10:10:13.970Z,2.17
2023-05-11T10:11:16.091Z,1.90
2023-05-11T10:12:23.828Z,1.60
2023-05-11T10:13:27.052Z,2.00
2023-05-11T10:14:32.096Z,2.33
2023-05-11T10:15:36.583Z,2.40
2023-05-11T10:16:44.209Z,2.28
2023-05-11T10:17:46.451Z,2.55
2023-05-11T10:18:49.027Z,1.90
2023-05-11T10:19:54.330Z,2.30
2023-05-11T10:20:58.590Z,2.70
2023-05-11T10:22:02.327Z,1.95
2023-05-11T10:23:05.846Z,1.80
2023-05-11T10:24:08.768Z,2.22
2023-05-11T10:25:11.639Z,2.00
2023-05-11T10:26:14.995Z,2.20
2023-05-11T10:27:17.105Z,2.40
2023-05-11T10:28:20.836Z,2.00
2023-05-11T10:29:24.224Z,2.00
2023-05-11T10:30:26.867Z,2.75
2023-05-11T10:31:30.071Z,1.75
2023-05-11T10:32:39.640Z,2.00
2023-05-11T10:33:42.773Z,2.05
2023-05-11T10:34:46.989Z,2.17
2023-05-11T10:35:52.076Z,2.75
2023-05-11T10:37:00.140Z,2.05
2023-05-11T10:38:02.148Z,2.20
2023-05-11T10:39:04.044Z,2.30
2023-05-11T10:40:07.579Z,2.22
2023-05-11T10:41:39.519Z,2.40
2023-05-11T10:43:06.228Z,2.25
2023-05-11T10:45:03.215Z,2.10
2023-05-11T10:46:44.210Z,2.67
2023-05-11T10:48:35.020Z,1.95
2023-05-11T10:50:33.357Z,2.15
2023-05-11T10:52:17.647Z,2.00
2023-05-11T10:53:48.561Z,2.25
2023-05-11T10:55:16.683Z,1.80
2023-05-11T10:56:47.265Z,3.30
2023-05-11T10:58:15.640Z,2.00
2023-05-11T11:00:14.187Z,2.28
2023-05-11T11:01:39.557Z,1.98
2023-05-11T11:02:42.553Z,2.08
2023-05-11T11:04:02.992Z,2.70
2023-05-11T11:05:10.183Z,2.38
2023-05-11T11:06:32.169Z,2.65
2023-05-11T11:08:03.802Z,3.75
2023-05-11T11:09:15.880Z,3.20
2023-05-11T11:10:39.495Z,1.90
2023-05-11T11:11:47.839Z,2.35
2023-05-11T11:13:08.798Z,2.40
2023-05-11T11:14:10.792Z,2.50
2023-05-11T11:15:12.604Z,1.90
2023-05-11T11:16:16.543Z,1.70
2023-05-11T11:17:18.475Z,2.00
2023-05-11T11:18:23.923Z,1.83
2023-05-11T11:19:31.589Z,1.90
2023-05-11T11:20:57.407Z,2.30
2023-05-11T11:22:01.714Z,2.67
2023-05-11T11:23:03.564Z,2.15
2023-05-11T11:24:05.662Z,2.08
2023-05-11T11:25:10.025Z,2.35
2023-05-11T11:26:15.616Z,2.20
2023-05-11T11:27:17.534Z,2.13
2023-05-11T11:28:19.858Z,1.90
2023-05-11T11:29:22.002Z,2.25
2023-05-11T11:30:30.444Z,2.33
2023-05-11T11:31:34.404Z,2.20
2023-05-11T11:32:36.363Z,2.20
2023-05-11T11:33:38.262Z,2.45
2023-05-11T11:34:40.196Z,2.30
2023-05-11T11:35:42.120Z,2.20
2023-05-11T11:36:58.372Z,2.28
2023-05-11T11:38:03.456Z,2.30
2023-05-11T11:39:05.548Z,2.15
2023-05-11T11:40:14.732Z,2.13
2023-05-11T11:41:33.895Z,2.30
2023-05-11T11:42:39.604Z,2.67
2023-05-11T11:43:47.258Z,2.50
2023-05-11T11:44:49.157Z,2.28
2023-05-11T11:46:02.781Z,1.75
2023-05-11T11:47:14.456Z,1.92
2023-05-11T11:48:35.603Z,2.00
2023-05-11T11:49:39.523Z,2.15
2023-05-11T11:50:44.642Z,2.10
2023-05-11T11:51:46.552Z,2.00
2023-05-11T11:52:48.346Z,1.88
2023-05-11T11:53:49.994Z,2.13
2023-05-11T11:54:51.795Z,2.40
2023-05-11T11:55:53.647Z,2.20
2023-05-11T11:56:55.564Z,2.15
2023-05-11T11:57:57.953Z,2.20
2023-05-11T11:59:02.964Z,2.08
2023-05-11T12:00:13.363Z,2.00
2023-05-11T12:01:20.009Z,2.20
2023-05-11T12:02:24.118Z,2.05
2023-05-11T12:03:26.436Z,2.17
2023-05-11T12:04:50.874Z,2.28
2023-05-11T12:06:01.726Z,2.13
2023-05-11T12:07:09.100Z,1.70
2023-05-11T12:08:16.373Z,1.90
2023-05-11T12:09:22.427Z,1.88
2023-05-11T12:10:24.317Z,1.60
2023-05-11T12:11:29.930Z,2.40
2023-05-11T12:12:32.260Z,2.00
2023-05-11T12:13:35.499Z,3.45
2023-05-11T12:14:42.029Z,2.42
2023-05-11T12:15:43.870Z,1.60
2023-05-11T12:17:05.191Z,2.55
2023-05-11T12:18:24.118Z,2.50
2023-05-11T12:19:25.878Z,2.25
2023-05-11T12:20:27.636Z,1.73
2023-05-11T12:21:32.164Z,1.90
2023-05-11T12:22:36.876Z,2.33
2023-05-11T12:23:38.686Z,2.00
2023-05-11T12:24:41.350Z,2.17
2023-05-11T12:25:43.156Z,1.63
2023-05-11T12:26:44.912Z,2.55
2023-05-11T12:28:03.214Z,1.55
2023-05-11T12:29:12.663Z,2.15
2023-05-11T12:30:34.600Z,1.38
2023-05-11T12:31:42.964Z,2.28
2023-05-11T12:32:44.802Z,1.73
2023-05-11T12:33:51.795Z,1.90
2023-05-11T12:35:04.247Z,1.83
2023-05-11T12:36:06.833Z,1.90
2023-05-11T12:37:08.739Z,1.70
2023-05-11T12:38:11.825Z,2.28
2023-05-11T12:39:24.374Z,2.50
2023-05-11T12:40:27.023Z,2.45
2023-05-11T12:41:28.882Z,1.90
2023-05-11T12:42:33.211Z,2.35
2023-05-11T12:43:36.804Z,1.50
2023-05-11T12:44:40.726Z,1.60
2023-05-11T12:45:42.710Z,1.63
2023-05-11T12:46:47.650Z,1.90
2023-05-11T12:47:52.739Z,1.65
2023-05-11T12:48:54.685Z,1.60
2023-05-11T12:49:56.658Z,1.55
2023-05-11T12:50:58.423Z,1.70
2023-05-11T12:52:02.338Z,1.60
2023-05-11T12:53:20.143Z,2.00
2023-05-11T12:54:37.571Z,1.55
2023-05-11T12:55:39.329Z,1.80
2023-05-11T12:56:48.700Z,1.40
2023-05-11T12:57:54.518Z,1.75
2023-05-11T12:58:56.243Z,2.20
2023-05-11T13:00:15.525Z,1.92
2023-05-11T13:01:25.174Z,1.80
2023-05-11T13:02:27.114Z,2.13
2023-05-11T13:03:34.073Z,1.85
2023-05-11T13:04:37.280Z,1.73
2023-05-11T13:05:39.851Z,1.73
2023-05-11T13:06:45.724Z,1.90
2023-05-11T13:07:48.579Z,1.90
2023-05-11T13:08:50.952Z,1.80
2023-05-11T13:10:01.214Z,1.60
2023-05-11T13:11:26.742Z,2.28
2023-05-11T13:12:34.144Z,1.63
2023-05-11T13:13:36.155Z,1.58
2023-05-11T13:14:39.541Z,2.00
2023-05-11T13:15:52.220Z,2.00
2023-05-11T13:16:54.481Z,1.92
2023-05-11T13:18:00.312Z,1.50
2023-05-11T13:19:05.630Z,2.00
2023-05-11T13:20:33.128Z,1.65
2023-05-11T13:21:34.970Z,1.98
2023-05-11T13:22:36.901Z,2.00
2023-05-11T13:23:38.730Z,1.80
2023-05-11T13:24:40.569Z,2.00
2023-05-11T13:25:54.234Z,1.90
2023-05-11T13:26:59.277Z,1.80
2023-05-11T13:28:01.619Z,1.50
2023-05-11T13:29:10.931Z,1.98
2023-05-11T13:30:14.154Z,2.55
2023-05-11T13:31:16.135Z,1.83
2023-05-11T13:32:18.030Z,2.45
2023-05-11T13:33:20.605Z,2.70
2023-05-11T13:34:22.612Z,2.95
2023-05-11T13:35:24.453Z,2.40
2023-05-11T13:36:26.311Z,2.53
2023-05-11T13:37:28.245Z,1.60
2023-05-11T13:38:30.216Z,1.70
2023-05-11T13:39:32.170Z,1.90
2023-05-11T13:40:35.062Z,1.70
2023-05-11T13:41:37.039Z,1.55
2023-05-11T13:42:39.019Z,2.00
2023-05-11T13:43:40.812Z,1.73
2023-05-11T13:44:42.675Z,1.92
2023-05-11T13:45:44.505Z,1.58
2023-05-11T13:46:46.413Z,1.58
2023-05-11T13:47:48.324Z,1.70
2023-05-11T13:48:50.637Z,2.58
2023-05-11T13:49:54.569Z,2.05
2023-05-11T13:50:56.368Z,3.05
2023-05-11T13:51:58.283Z,2.45
2023-05-11T13:53:00.200Z,1.95
2023-05-11T13:54:02.566Z,1.70
2023-05-11T13:55:05.352Z,2.30
2023-05-11T13:56:07.326Z,1.60
2023-05-11T13:57:09.221Z,1.90
2023-05-11T13:58:11.127Z,1.48
2023-05-11T13:59:13.037Z,3.10
2023-05-11T14:00:16.023Z,1.60
2023-05-11T14:01:17.877Z,1.85
2023-05-11T14:02:19.768Z,1.40
2023-05-11T14:03:23.419Z,1.27
2023-05-11T14:04:25.913Z,2.80
2023-05-11T14:05:28.073Z,1.40
2023-05-11T14:06:34.680Z,1.90
2023-05-11T14:07:47.165Z,5.07
2023-05-11T14:08:51.550Z,1.63
2023-05-11T14:09:53.290Z,2.33
2023-05-11T14:10:55.026Z,1.80
2023-05-11T14:11:57.055Z,2.05
2023-05-11T14:12:58.842Z,1.60
2023-05-11T14:14:01.224Z,1.70
2023-05-11T14:15:03.563Z,1.98
2023-05-11T14:16:06.015Z,2.00
2023-05-11T14:17:08.207Z,2.40
2023-05-11T14:18:10.207Z,1.90
2023-05-11T14:19:12.330Z,1.90
2023-05-11T14:20:14.409Z,2.28
2023-05-11T14:21:17.371Z,1.83
2023-05-11T14:22:19.180Z,2.28
2023-05-11T14:23:21.467Z,2.47
2023-05-11T14:24:23.342Z,2.00